Terminal Aerodrome Forecast
Issued by NWS Sioux Falls, SD

Home | Current Version | Previous Version | Text Only | Print | Product List | Glossary Off
Versions: 1 2 3 4 5 6 7 8 9 10 11 12 13 14 15 16 17 18 19 20

775
FTUS43 KFSD 230520
TAFHON
TAF
KHON 230520Z 2306/2406 08008KT 6SM BR OVC008
     FM231100 10010KT 4SM BR OVC003
     FM231600 11011KT P6SM OVC008
     FM231800 11013KT P6SM OVC015
     FM231900 12014KT P6SM BKN035
     FM240300 13013KT P6SM FEW250=

USA.gov is the U.S. government's official web portal to all federal, state and local government web resources and services.